Time,TemperatureF,DewpointF,PressureIn,WindDirection,WindDirectionDegrees,WindSpeedMPH,WindSpeedGustMPH,Humidity,HourlyPrecipIn,Conditions,Clouds,dailyrainin,SoftwareType,DateUTC
2013-09-08 00:00:00,64.5,63.9,29.94,NNE,17,0.0,0.0,98,0.00,,,0.00,Wunderground v.1.15,2013-09-08 04:00:00,
2013-09-08 00:05:00,64.4,63.8,29.94,NNE,17,0.0,0.0,98,0.00,,,0.00,Wunderground v.1.15,2013-09-08 04:05:00,
2013-09-08 00:10:00,64.3,63.7,29.94,NNE,17,0.0,0.0,98,0.00,,,0.00,Wunderground v.1.15,2013-09-08 04:10:00,
2013-09-08 00:15:00,64.2,63.3,29.95,NNE,17,0.0,0.0,97,0.00,,,0.00,Wunderground v.1.15,2013-09-08 04:15:00,
2013-09-08 00:20:00,64.1,63.5,29.95,NNE,17,0.0,0.0,98,0.00,,,0.00,Wunderground v.1.15,2013-09-08 04:20:00,
2013-09-08 00:25:00,64.1,63.5,29.95,NNE,17,0.0,0.0,98,0.00,,,0.00,Wunderground v.1.15,2013-09-08 04:25:00,
2013-09-08 00:30:00,64.1,63.5,29.94,NNE,17,0.0,0.0,98,0.00,,,0.00,Wunderground v.1.15,2013-09-08 04:30:00,
2013-09-08 00:35:00,64.1,63.5,29.95,NNE,17,0.0,0.0,98,0.00,,,0.00,Wunderground v.1.15,2013-09-08 04:35:00,
2013-09-08 00:40:00,64.1,63.5,29.94,NNE,17,0.0,0.0,98,0.00,,,0.00,Wunderground v.1.15,2013-09-08 04:40:00,
2013-09-08 00:50:00,63.9,63.3,29.94,NNE,17,0.0,0.0,98,0.00,,,0.00,Wunderground v.1.15,2013-09-08 04:50:00,
2013-09-08 00:55:00,63.9,63.3,29.94,NNE,17,0.0,0.0,98,0.00,,,0.00,Wunderground v.1.15,2013-09-08 04:55:00,
2013-09-08 01:00:00,63.8,63.2,29.94,NNE,17,0.0,0.0,98,0.00,,,0.00,Wunderground v.1.15,2013-09-08 05:00:00,
2013-09-08 01:10:00,63.7,63.1,29.94,NNE,17,0.0,0.0,98,0.00,,,0.00,Wunderground v.1.15,2013-09-08 05:10:00,
2013-09-08 01:15:00,63.6,63.0,29.94,NNE,17,0.0,0.0,98,0.00,,,0.00,Wunderground v.1.15,2013-09-08 05:15:00,
2013-09-08 01:20:00,63.5,62.9,29.94,NNE,17,0.0,0.0,98,0.00,,,0.00,Wunderground v.1.15,2013-09-08 05:20:00,
2013-09-08 01:30:00,63.5,62.9,29.94,NNE,17,0.0,0.0,98,0.00,,,0.00,Wunderground v.1.15,2013-09-08 05:30:00,
2013-09-08 01:35:00,63.5,62.9,29.94,NNE,17,0.0,0.0,98,0.00,,,0.00,Wunderground v.1.15,2013-09-08 05:35:00,
2013-09-08 01:40:00,63.5,62.9,29.94,NNE,17,0.0,0.0,98,0.00,,,0.00,Wunderground v.1.15,2013-09-08 05:40:00,
2013-09-08 01:50:00,63.5,63.2,29.94,NNE,17,0.0,0.0,99,0.00,,,0.00,Wunderground v.1.15,2013-09-08 05:50:00,
2013-09-08 01:55:00,63.4,62.8,29.94,NNE,17,0.0,0.0,98,0.00,,,0.00,Wunderground v.1.15,2013-09-08 05:55:00,
2013-09-08 02:05:00,63.4,62.8,29.93,NNE,17,0.0,0.0,98,0.00,,,0.00,Wunderground v.1.15,2013-09-08 06:05:00,
2013-09-08 02:10:00,63.4,63.1,29.93,NNE,17,0.0,0.0,99,0.00,,,0.00,Wunderground v.1.15,2013-09-08 06:10:00,
2013-09-08 02:15:00,63.5,63.2,29.93,NNE,17,0.0,0.0,99,0.00,,,0.00,Wunderground v.1.15,2013-09-08 06:15:00,
2013-09-08 02:20:00,63.5,63.2,29.93,NNE,17,0.0,0.0,99,0.00,,,0.00,Wunderground v.1.15,2013-09-08 06:20:00,
2013-09-08 02:30:00,63.7,63.4,29.93,NNE,17,0.0,0.0,99,0.00,,,0.00,Wunderground v.1.15,2013-09-08 06:30:00,
2013-09-08 02:35:00,63.8,63.5,29.93,NNE,17,0.0,0.0,99,0.00,,,0.00,Wunderground v.1.15,2013-09-08 06:35:00,
2013-09-08 02:40:00,63.8,63.5,29.93,NNE,17,0.0,0.0,99,0.00,,,0.00,Wunderground v.1.15,2013-09-08 06:40:00,
2013-09-08 02:50:00,63.9,63.6,29.92,NNE,17,0.0,0.0,99,0.00,,,0.00,Wunderground v.1.15,2013-09-08 06:50:00,
2013-09-08 02:55:00,63.9,63.6,29.92,NNE,17,0.0,0.0,99,0.00,,,0.00,Wunderground v.1.15,2013-09-08 06:55:00,
2013-09-08 03:00:00,64.0,63.7,29.92,NNE,17,0.0,0.0,99,0.00,,,0.00,Wunderground v.1.15,2013-09-08 07:00:00,
2013-09-08 03:10:00,63.9,63.6,29.92,NNE,17,0.0,0.0,99,0.00,,,0.00,Wunderground v.1.15,2013-09-08 07:10:00,
2013-09-08 03:15:00,63.9,63.6,29.92,NNE,17,0.0,0.0,99,0.00,,,0.00,Wunderground v.1.15,2013-09-08 07:15:00,
2013-09-08 03:20:00,63.9,63.6,29.92,NNE,17,0.0,0.0,99,0.00,,,0.00,Wunderground v.1.15,2013-09-08 07:20:00,
2013-09-08 03:30:00,63.9,63.6,29.91,NNE,17,0.0,0.0,99,0.00,,,0.00,Wunderground v.1.15,2013-09-08 07:30:00,
2013-09-08 03:35:00,63.8,63.5,29.91,NNE,17,0.0,0.0,99,0.00,,,0.00,Wunderground v.1.15,2013-09-08 07:35:00,
2013-09-08 03:45:00,63.6,63.3,29.91,NNE,17,0.0,0.0,99,0.00,,,0.00,Wunderground v.1.15,2013-09-08 07:45:00,
2013-09-08 03:50:00,63.6,63.3,29.91,NNE,17,0.0,0.0,99,0.00,,,0.00,Wunderground v.1.15,2013-09-08 07:50:00,
2013-09-08 03:55:00,63.6,63.3,29.91,NNE,17,0.0,0.0,99,0.00,,,0.00,Wunderground v.1.15,2013-09-08 07:55:00,
2013-09-08 04:05:00,63.5,63.2,29.91,NNE,17,0.0,0.0,99,0.00,,,0.00,Wunderground v.1.15,2013-09-08 08:05:00,
2013-09-08 04:10:00,63.5,63.2,29.91,NNE,17,0.0,0.0,99,0.00,,,0.00,Wunderground v.1.15,2013-09-08 08:10:00,
2013-09-08 04:15:00,63.4,63.1,29.91,NNE,17,0.0,0.0,99,0.00,,,0.00,Wunderground v.1.15,2013-09-08 08:15:00,
2013-09-08 04:25:00,63.4,63.1,29.91,NNE,17,0.0,0.0,99,0.00,,,0.00,Wunderground v.1.15,2013-09-08 08:25:00,
2013-09-08 04:30:00,63.3,63.0,29.91,NNE,17,0.0,0.0,99,0.00,,,0.00,Wunderground v.1.15,2013-09-08 08:30:00,
2013-09-08 04:35:00,63.3,63.0,29.91,NNE,17,0.0,0.0,99,0.00,,,0.00,Wunderground v.1.15,2013-09-08 08:35:00,
2013-09-08 04:45:00,63.2,62.9,29.91,NNE,17,0.0,0.0,99,0.00,,,0.00,Wunderground v.1.15,2013-09-08 08:45:00,
2013-09-08 04:50:00,63.1,62.8,29.90,NNE,17,0.0,0.0,99,0.00,,,0.00,Wunderground v.1.15,2013-09-08 08:50:00,
2013-09-08 04:55:00,63.1,62.8,29.90,NNE,17,0.0,0.0,99,0.00,,,0.00,Wunderground v.1.15,2013-09-08 08:55:00,
2013-09-08 05:05:00,63.1,62.8,29.90,NNE,17,0.0,0.0,99,0.00,,,0.00,Wunderground v.1.15,2013-09-08 09:05:00,
2013-09-08 05:10:00,63.0,62.7,29.90,NNE,17,0.0,0.0,99,0.00,,,0.00,Wunderground v.1.15,2013-09-08 09:10:00,
2013-09-08 05:15:00,62.9,62.6,29.90,NNE,17,0.0,0.0,99,0.00,,,0.00,Wunderground v.1.15,2013-09-08 09:15:00,
2013-09-08 05:20:00,62.9,62.6,29.90,NNE,17,0.0,0.0,99,0.00,,,0.00,Wunderground v.1.15,2013-09-08 09:20:00,
2013-09-08 05:30:00,62.7,62.4,29.91,NNE,17,0.0,0.0,99,0.00,,,0.00,Wunderground v.1.15,2013-09-08 09:30:00,
2013-09-08 05:35:00,62.5,62.2,29.90,NNE,17,0.0,0.0,99,0.00,,,0.00,Wunderground v.1.15,2013-09-08 09:35:00,
2013-09-08 05:45:00,62.3,62.0,29.90,NNE,17,0.0,0.0,99,0.00,,,0.00,Wunderground v.1.15,2013-09-08 09:45:00,
2013-09-08 05:55:00,62.1,61.8,29.90,NNE,17,0.0,0.0,99,0.00,,,0.00,Wunderground v.1.15,2013-09-08 09:55:00,
2013-09-08 06:00:00,62.0,61.7,29.91,NNE,17,0.0,0.0,99,0.00,,,0.00,Wunderground v.1.15,2013-09-08 10:00:00,
2013-09-08 06:05:00,62.0,61.7,29.91,NNE,17,0.0,0.0,99,0.00,,,0.00,Wunderground v.1.15,2013-09-08 10:05:00,
2013-09-08 06:10:00,61.9,61.6,29.91,NNE,17,0.0,0.0,99,0.00,,,0.00,Wunderground v.1.15,2013-09-08 10:10:00,
2013-09-08 06:20:00,61.7,61.4,29.91,NNE,17,0.0,0.0,99,0.00,,,0.00,Wunderground v.1.15,2013-09-08 10:20:00,
2013-09-08 06:25:00,61.7,61.4,29.91,NNE,17,0.0,0.0,99,0.00,,,0.00,Wunderground v.1.15,2013-09-08 10:25:00,
2013-09-08 06:30:00,61.6,61.3,29.91,NNE,17,0.0,0.0,99,0.00,,,0.00,Wunderground v.1.15,2013-09-08 10:30:00,
2013-09-08 06:40:00,61.4,61.1,29.92,NNE,17,0.0,0.0,99,0.00,,,0.00,Wunderground v.1.15,2013-09-08 10:40:00,
2013-09-08 06:45:00,61.3,61.0,29.91,NNE,17,0.0,0.0,99,0.00,,,0.00,Wunderground v.1.15,2013-09-08 10:45:00,
2013-09-08 06:50:00,61.3,61.0,29.91,NNE,17,0.0,0.0,99,0.00,,,0.00,Wunderground v.1.15,2013-09-08 10:50:00,
2013-09-08 07:00:00,61.1,60.8,29.91,NNE,17,0.0,0.0,99,0.00,,,0.00,Wunderground v.1.15,2013-09-08 11:00:00,
2013-09-08 07:05:00,61.0,60.7,29.91,NNE,17,0.0,0.0,99,0.00,,,0.00,Wunderground v.1.15,2013-09-08 11:05:00,
2013-09-08 07:10:00,60.9,60.6,29.91,NNE,17,0.0,0.0,99,0.00,,,0.00,Wunderground v.1.15,2013-09-08 11:10:00,
2013-09-08 07:20:00,60.8,60.5,29.91,NNE,17,0.0,0.0,99,0.00,,,0.00,Wunderground v.1.15,2013-09-08 11:20:00,
2013-09-08 07:25:00,60.9,60.6,29.91,NNE,17,0.0,0.0,99,0.00,,,0.00,Wunderground v.1.15,2013-09-08 11:25:00,
2013-09-08 07:35:00,60.9,60.6,29.91,NNE,17,0.0,0.0,99,0.00,,,0.00,Wunderground v.1.15,2013-09-08 11:35:00,
2013-09-08 07:40:00,60.9,60.6,29.91,NNE,17,0.0,0.0,99,0.00,,,0.00,Wunderground v.1.15,2013-09-08 11:40:00,
2013-09-08 07:45:00,60.9,60.6,29.91,NNE,17,0.0,0.0,99,0.00,,,0.00,Wunderground v.1.15,2013-09-08 11:45:00,
2013-09-08 07:50:00,61.0,60.7,29.91,NNE,17,0.0,0.0,99,0.00,,,0.00,Wunderground v.1.15,2013-09-08 11:50:00,
2013-09-08 08:00:00,61.4,61.4,29.91,NNE,17,0.0,0.0,100,0.00,,,0.00,Wunderground v.1.15,2013-09-08 12:00:00,
2013-09-08 08:05:00,61.7,61.7,29.91,NNE,17,0.0,0.0,100,0.00,,,0.00,Wunderground v.1.15,2013-09-08 12:05:00,
2013-09-08 08:15:00,62.1,62.1,29.91,NNE,17,0.0,0.0,100,0.00,,,0.00,Wunderground v.1.15,2013-09-08 12:15:00,
2013-09-08 08:20:00,62.3,62.3,29.91,NNE,17,0.0,0.0,100,0.00,,,0.00,Wunderground v.1.15,2013-09-08 12:20:00,
2013-09-08 08:30:00,62.9,62.9,29.91,NNE,17,0.0,0.0,100,0.00,,,0.00,Wunderground v.1.15,2013-09-08 12:30:00,
2013-09-08 08:35:00,63.4,63.4,29.91,NNE,17,0.0,0.0,100,0.00,,,0.00,Wunderground v.1.15,2013-09-08 12:35:00,
2013-09-08 08:45:00,65.5,65.5,29.91,NNE,26,0.0,0.0,100,0.00,,,0.00,Wunderground v.1.15,2013-09-08 12:45:00,
2013-09-08 08:50:00,66.3,66.3,29.91,NNE,17,1.0,1.0,100,0.00,,,0.00,Wunderground v.1.15,2013-09-08 12:50:00,
2013-09-08 08:55:00,66.2,66.2,29.91,NNE,17,0.0,1.0,100,0.00,,,0.00,Wunderground v.1.15,2013-09-08 12:55:00,
2013-09-08 09:00:00,66.6,66.6,29.91,SE,142,0.0,0.0,100,0.00,,,0.00,Wunderground v.1.15,2013-09-08 13:00:00,
2013-09-08 09:10:00,67.0,67.0,29.91,NNE,17,0.0,0.0,100,0.00,,,0.00,Wunderground v.1.15,2013-09-08 13:10:00,
2013-09-08 09:15:00,67.3,67.0,29.91,NNE,17,0.0,1.0,99,0.00,,,0.00,Wunderground v.1.15,2013-09-08 13:15:00,
2013-09-08 09:25:00,68.1,66.9,29.91,NNW,347,1.0,1.0,96,0.00,,,0.00,Wunderground v.1.15,2013-09-08 13:25:00,
2013-09-08 09:30:00,68.5,66.1,29.92,North,360,1.0,1.0,92,0.00,,,0.00,Wunderground v.1.15,2013-09-08 13:30:00,
2013-09-08 09:35:00,69.0,66.6,29.92,North,355,1.0,1.0,92,0.00,,,0.00,Wunderground v.1.15,2013-09-08 13:35:00,
2013-09-08 09:45:00,69.9,66.2,29.91,North,355,1.0,1.0,88,0.00,,,0.00,Wunderground v.1.15,2013-09-08 13:45:00,
2013-09-08 09:50:00,70.4,66.3,29.92,North,355,1.0,1.0,87,0.00,,,0.00,Wunderground v.1.15,2013-09-08 13:50:00,
2013-09-08 09:55:00,70.8,67.1,29.92,North,355,0.0,1.0,88,0.00,,,0.00,Wunderground v.1.15,2013-09-08 13:55:00,
2013-09-08 10:05:00,71.6,66.8,29.92,NNW,331,1.0,2.0,85,0.00,,,0.00,Wunderground v.1.15,2013-09-08 14:05:00,
2013-09-08 10:10:00,72.2,66.4,29.92,NNE,24,1.0,2.0,82,0.00,,,0.00,Wunderground v.1.15,2013-09-08 14:10:00,
2013-09-08 10:15:00,72.5,66.3,29.92,NNE,17,1.0,2.0,81,0.00,,,0.00,Wunderground v.1.15,2013-09-08 14:15:00,
2013-09-08 10:25:00,73.1,67.3,29.92,WNW,289,0.0,1.0,82,0.00,,,0.00,Wunderground v.1.15,2013-09-08 14:25:00,
2013-09-08 10:30:00,73.5,66.6,29.92,WNW,300,0.0,1.0,79,0.00,,,0.00,Wunderground v.1.15,2013-09-08 14:30:00,
2013-09-08 10:35:00,74.0,67.1,29.92,WNW,300,0.0,1.0,79,0.00,,,0.00,Wunderground v.1.15,2013-09-08 14:35:00,
2013-09-08 10:45:00,74.2,68.3,29.92,WNW,290,0.0,1.0,82,0.00,,,0.00,Wunderground v.1.15,2013-09-08 14:45:00,
2013-09-08 10:50:00,74.0,68.2,29.92,WNW,290,0.0,1.0,82,0.00,,,0.00,Wunderground v.1.15,2013-09-08 14:50:00,
2013-09-08 10:55:00,74.2,68.0,29.91,WNW,290,0.0,1.0,81,0.00,,,0.00,Wunderground v.1.15,2013-09-08 14:55:00,
2013-09-08 11:05:00,75.0,66.1,29.92,WNW,290,0.0,0.0,74,0.00,,,0.00,Wunderground v.1.15,2013-09-08 15:05:00,
2013-09-08 11:10:00,75.6,67.1,29.92,WNW,292,1.0,1.0,75,0.00,,,0.00,Wunderground v.1.15,2013-09-08 15:10:00,
2013-09-08 11:15:00,76.7,67.8,29.92,WNW,293,0.0,1.0,74,0.00,,,0.00,Wunderground v.1.15,2013-09-08 15:15:00,
2013-09-08 11:25:00,77.5,66.5,29.91,WNW,293,0.0,0.0,69,0.00,,,0.00,Wunderground v.1.15,2013-09-08 15:25:00,
2013-09-08 11:30:00,78.2,68.0,29.91,WNW,293,0.0,0.0,71,0.00,,,0.00,Wunderground v.1.15,2013-09-08 15:30:00,
2013-09-08 11:35:00,78.8,66.9,29.91,WNW,293,0.0,1.0,67,0.00,,,0.00,Wunderground v.1.15,2013-09-08 15:35:00,
2013-09-08 11:45:00,80.1,66.4,29.92,NNW,338,1.0,1.0,63,0.00,,,0.00,Wunderground v.1.15,2013-09-08 15:45:00,
2013-09-08 11:50:00,80.5,65.8,29.92,NNW,340,1.0,1.0,61,0.00,,,0.00,Wunderground v.1.15,2013-09-08 15:50:00,
2013-09-08 11:55:00,80.8,66.6,29.92,North,5,1.0,1.0,62,0.00,,,0.00,Wunderground v.1.15,2013-09-08 15:55:00,
2013-09-08 12:05:00,81.1,67.8,29.91,North,5,1.0,2.0,64,0.00,,,0.00,Wunderground v.1.15,2013-09-08 16:05:00,
2013-09-08 12:10:00,81.4,66.2,29.91,North,355,0.0,1.0,60,0.00,,,0.00,Wunderground v.1.15,2013-09-08 16:10:00,
2013-09-08 12:15:00,81.9,69.0,29.90,North,355,0.0,1.0,65,0.00,,,0.00,Wunderground v.1.15,2013-09-08 16:15:00,
2013-09-08 12:25:00,82.5,67.7,29.90,NE,55,0.0,0.0,61,0.00,,,0.00,Wunderground v.1.15,2013-09-08 16:25:00,
2013-09-08 12:30:00,82.9,69.9,29.90,NE,55,0.0,0.0,65,0.00,,,0.00,Wunderground v.1.15,2013-09-08 16:30:00,
2013-09-08 12:40:00,82.6,70.5,29.90,NE,55,0.0,0.0,67,0.00,,,0.00,Wunderground v.1.15,2013-09-08 16:40:00,
2013-09-08 12:45:00,82.5,70.9,29.90,NE,55,0.0,0.0,68,0.00,,,0.00,Wunderground v.1.15,2013-09-08 16:45:00,
2013-09-08 12:50:00,82.5,68.6,29.89,NE,55,0.0,0.0,63,0.00,,,0.00,Wunderground v.1.15,2013-09-08 16:50:00,
2013-09-08 12:55:00,82.5,70.4,29.89,NE,55,0.0,1.0,67,0.00,,,0.00,Wunderground v.1.15,2013-09-08 16:55:00,
2013-09-08 13:05:00,82.6,71.4,29.89,NE,55,0.0,1.0,69,0.00,,,0.00,Wunderground v.1.15,2013-09-08 17:05:00,
2013-09-08 13:10:00,82.6,67.8,29.89,ENE,63,0.0,1.0,61,0.00,,,0.00,Wunderground v.1.15,2013-09-08 17:10:00,
2013-09-08 13:15:00,82.9,68.1,29.89,ESE,122,1.0,1.0,61,0.00,,,0.00,Wunderground v.1.15,2013-09-08 17:15:00,
2013-09-08 13:25:00,83.5,69.6,29.89,ESE,122,1.0,1.0,63,0.00,,,0.00,Wunderground v.1.15,2013-09-08 17:25:00,
2013-09-08 13:30:00,83.8,67.9,29.89,SE,133,0.0,1.0,59,0.00,,,0.00,Wunderground v.1.15,2013-09-08 17:30:00,
2013-09-08 13:35:00,83.3,67.5,29.89,SE,133,1.0,1.0,59,0.00,,,0.00,Wunderground v.1.15,2013-09-08 17:35:00,
2013-09-08 13:45:00,82.4,67.6,29.88,ESE,105,1.0,1.0,61,0.00,,,0.00,Wunderground v.1.15,2013-09-08 17:45:00,
2013-09-08 13:50:00,82.8,68.0,29.88,NNE,25,0.0,0.0,61,0.00,,,0.00,Wunderground v.1.15,2013-09-08 17:50:00,
2013-09-08 13:55:00,83.4,67.6,29.88,NNW,329,1.0,1.0,59,0.00,,,0.00,Wunderground v.1.15,2013-09-08 17:55:00,
2013-09-08 14:05:00,84.3,64.2,29.88,NNW,329,1.0,1.0,51,0.00,,,0.00,Wunderground v.1.15,2013-09-08 18:05:00,
2013-09-08 14:10:00,84.8,63.5,29.88,NNW,347,0.0,1.0,49,0.00,,,0.00,Wunderground v.1.15,2013-09-08 18:10:00,
2013-09-08 14:20:00,84.4,64.9,29.88,NNW,347,0.0,1.0,52,0.00,,,0.00,Wunderground v.1.15,2013-09-08 18:20:00,
2013-09-08 14:25:00,84.9,63.0,29.88,NW,313,1.0,1.0,48,0.00,,,0.00,Wunderground v.1.15,2013-09-08 18:25:00,
2013-09-08 14:30:00,85.2,69.7,29.88,NW,313,1.0,1.0,60,0.00,,,0.00,Wunderground v.1.15,2013-09-08 18:30:00,
2013-09-08 14:35:00,85.3,64.6,29.87,North,355,0.0,1.0,50,0.00,,,0.00,Wunderground v.1.15,2013-09-08 18:35:00,
2013-09-08 14:45:00,84.7,66.7,29.87,North,350,1.0,4.0,55,0.00,,,0.00,Wunderground v.1.15,2013-09-08 18:45:00,
2013-09-08 14:50:00,85.1,65.5,29.87,NW,318,1.0,1.0,52,0.00,,,0.00,Wunderground v.1.15,2013-09-08 18:50:00,
2013-09-08 15:00:00,86.3,63.7,29.87,NW,318,0.0,0.0,47,0.00,,,0.00,Wunderground v.1.15,2013-09-08 19:00:00,
2013-09-08 15:05:00,85.9,70.9,29.87,NW,318,0.0,0.0,61,0.00,,,0.00,Wunderground v.1.15,2013-09-08 19:05:00,
2013-09-08 15:10:00,85.8,64.4,29.87,NW,318,0.0,1.0,49,0.00,,,0.00,Wunderground v.1.15,2013-09-08 19:10:00,
2013-09-08 15:15:00,86.1,68.0,29.86,NW,318,1.0,1.0,55,0.00,,,0.00,Wunderground v.1.15,2013-09-08 19:15:00,
2013-09-08 15:25:00,86.0,65.2,29.86,NE,39,0.0,1.0,50,0.00,,,0.00,Wunderground v.1.15,2013-09-08 19:25:00,
2013-09-08 15:30:00,86.6,64.0,29.87,ENE,67,1.0,2.0,47,0.00,,,0.00,Wunderground v.1.15,2013-09-08 19:30:00,
2013-09-08 15:40:00,85.5,69.0,29.87,ENE,67,1.0,2.0,58,0.00,,,0.00,Wunderground v.1.15,2013-09-08 19:40:00,
2013-09-08 15:45:00,85.0,68.1,29.87,ENE,67,0.0,2.0,57,0.00,,,0.00,Wunderground v.1.15,2013-09-08 19:45:00,
2013-09-08 15:50:00,84.7,66.7,29.87,ENE,67,0.0,0.0,55,0.00,,,0.00,Wunderground v.1.15,2013-09-08 19:50:00,
2013-09-08 16:00:00,85.7,65.5,29.87,NNE,32,1.0,1.0,51,0.00,,,0.00,Wunderground v.1.15,2013-09-08 20:00:00,
2013-09-08 16:05:00,86.3,63.7,29.86,NNE,32,1.0,2.0,47,0.00,,,0.00,Wunderground v.1.15,2013-09-08 20:05:00,
2013-09-08 16:10:00,86.9,68.3,29.86,NNE,25,1.0,1.0,54,0.00,,,0.00,Wunderground v.1.15,2013-09-08 20:10:00,
2013-09-08 16:20:00,85.8,68.8,29.86,NNE,32,1.0,1.0,57,0.00,,,0.00,Wunderground v.1.15,2013-09-08 20:20:00,
2013-09-08 16:25:00,85.0,67.5,29.86,NNE,32,0.0,1.0,56,0.00,,,0.00,Wunderground v.1.15,2013-09-08 20:25:00,
2013-09-08 16:30:00,84.3,68.4,29.86,NNE,32,0.0,0.0,59,0.00,,,0.00,Wunderground v.1.15,2013-09-08 20:30:00,
2013-09-08 16:40:00,83.2,70.2,29.86,NNE,32,0.0,0.0,65,0.00,,,0.00,Wunderground v.1.15,2013-09-08 20:40:00,
2013-09-08 16:45:00,83.0,70.5,29.86,NNE,32,0.0,0.0,66,0.00,,,0.00,Wunderground v.1.15,2013-09-08 20:45:00,
2013-09-08 16:50:00,82.6,71.8,29.86,NNE,32,0.0,0.0,70,0.00,,,0.00,Wunderground v.1.15,2013-09-08 20:50:00,
2013-09-08 17:00:00,81.9,71.6,29.86,NNE,32,0.0,0.0,71,0.00,,,0.00,Wunderground v.1.15,2013-09-08 21:00:00,
2013-09-08 17:05:00,81.6,71.7,29.86,NNE,32,0.0,0.0,72,0.00,,,0.00,Wunderground v.1.15,2013-09-08 21:05:00,
2013-09-08 17:10:00,81.5,71.6,29.86,NNE,32,0.0,0.0,72,0.00,,,0.00,Wunderground v.1.15,2013-09-08 21:10:00,
2013-09-08 17:20:00,81.4,72.7,29.86,NNE,32,0.0,0.0,75,0.00,,,0.00,Wunderground v.1.15,2013-09-08 21:20:00,
2013-09-08 17:25:00,81.5,73.2,29.86,NNE,32,0.0,0.0,76,0.00,,,0.00,Wunderground v.1.15,2013-09-08 21:25:00,
2013-09-08 17:30:00,81.2,73.7,29.86,NNE,32,0.0,0.0,78,0.00,,,0.00,Wunderground v.1.15,2013-09-08 21:30:00,
2013-09-08 17:40:00,81.0,72.7,29.87,NNE,32,0.0,0.0,76,0.00,,,0.00,Wunderground v.1.15,2013-09-08 21:40:00,
2013-09-08 17:45:00,80.9,73.4,29.87,NNE,32,0.0,0.0,78,0.00,,,0.00,Wunderground v.1.15,2013-09-08 21:45:00,
2013-09-08 17:50:00,80.7,73.2,29.87,NNE,32,0.0,0.0,78,0.00,,,0.00,Wunderground v.1.15,2013-09-08 21:50:00,
2013-09-08 18:00:00,80.2,73.5,29.87,NNE,32,0.0,0.0,80,0.00,,,0.00,Wunderground v.1.15,2013-09-08 22:00:00,
2013-09-08 18:05:00,80.0,73.6,29.87,NNE,32,0.0,0.0,81,0.00,,,0.00,Wunderground v.1.15,2013-09-08 22:05:00,
2013-09-08 18:10:00,79.8,73.4,29.87,NNE,32,0.0,0.0,81,0.00,,,0.00,Wunderground v.1.15,2013-09-08 22:10:00,
2013-09-08 18:20:00,79.5,73.2,29.87,NNE,32,0.0,0.0,81,0.00,,,0.00,Wunderground v.1.15,2013-09-08 22:20:00,
2013-09-08 18:25:00,79.4,73.4,29.87,NNE,32,0.0,0.0,82,0.00,,,0.00,Wunderground v.1.15,2013-09-08 22:25:00,
2013-09-08 18:30:00,79.1,73.5,29.87,East,89,0.0,1.0,83,0.00,,,0.00,Wunderground v.1.15,2013-09-08 22:30:00,
2013-09-08 18:40:00,78.7,73.5,29.87,South,182,0.0,0.0,84,0.00,,,0.00,Wunderground v.1.15,2013-09-08 22:40:00,
2013-09-08 18:45:00,78.5,73.6,29.87,South,182,0.0,0.0,85,0.00,,,0.00,Wunderground v.1.15,2013-09-08 22:45:00,
2013-09-08 18:50:00,78.4,74.2,29.87,South,182,0.0,0.0,87,0.00,,,0.00,Wunderground v.1.15,2013-09-08 22:50:00,
2013-09-08 19:00:00,77.9,74.1,29.88,SSW,205,0.0,0.0,88,0.00,,,0.00,Wunderground v.1.15,2013-09-08 23:00:00,
2013-09-08 19:05:00,77.7,73.9,29.88,SSW,204,0.0,0.0,88,0.00,,,0.00,Wunderground v.1.15,2013-09-08 23:05:00,
2013-09-08 19:15:00,77.3,73.8,29.88,SSE,159,0.0,0.0,89,0.00,,,0.00,Wunderground v.1.15,2013-09-08 23:15:00,
2013-09-08 19:20:00,76.9,73.7,29.88,SSE,159,0.0,0.0,90,0.00,,,0.00,Wunderground v.1.15,2013-09-08 23:20:00,
2013-09-08 19:25:00,76.6,73.4,29.88,SSE,159,0.0,0.0,90,0.00,,,0.00,Wunderground v.1.15,2013-09-08 23:25:00,
2013-09-08 19:30:00,76.3,73.5,29.88,SSE,159,0.0,0.0,91,0.00,,,0.00,Wunderground v.1.15,2013-09-08 23:30:00,
2013-09-08 19:40:00,75.7,72.9,29.89,SSE,159,0.0,0.0,91,0.00,,,0.00,Wunderground v.1.15,2013-09-08 23:40:00,
2013-09-08 19:45:00,75.5,72.7,29.89,SSE,159,0.0,0.0,91,0.00,,,0.00,Wunderground v.1.15,2013-09-08 23:45:00,
2013-09-08 19:55:00,74.9,72.4,29.89,SSE,159,0.0,0.0,92,0.00,,,0.00,Wunderground v.1.15,2013-09-08 23:55:00,
2013-09-08 20:00:00,74.6,71.8,29.89,SSE,159,0.0,0.0,91,0.00,,,0.00,Wunderground v.1.15,2013-09-09 00:00:00,
2013-09-08 20:05:00,74.3,72.1,29.89,SSE,159,0.0,0.0,93,0.00,,,0.00,Wunderground v.1.15,2013-09-09 00:05:00,
2013-09-08 20:15:00,73.9,71.7,29.89,SSE,159,0.0,0.0,93,0.00,,,0.00,Wunderground v.1.15,2013-09-09 00:15:00,
2013-09-08 20:20:00,73.6,71.8,29.90,SSE,159,0.0,0.0,94,0.00,,,0.00,Wunderground v.1.15,2013-09-09 00:20:00,
2013-09-08 20:25:00,73.3,71.5,29.90,SSE,159,0.0,0.0,94,0.00,,,0.00,Wunderground v.1.15,2013-09-09 00:25:00,
2013-09-08 20:35:00,72.8,70.7,29.90,SSE,159,0.0,0.0,93,0.00,,,0.00,Wunderground v.1.15,2013-09-09 00:35:00,
2013-09-08 20:40:00,72.6,70.5,29.91,SSE,159,0.0,0.0,93,0.00,,,0.00,Wunderground v.1.15,2013-09-09 00:40:00,
2013-09-08 20:45:00,72.4,70.6,29.91,SSE,159,0.0,0.0,94,0.00,,,0.00,Wunderground v.1.15,2013-09-09 00:45:00,
2013-09-08 20:55:00,72.1,70.0,29.91,SSE,159,0.0,0.0,93,0.00,,,0.00,Wunderground v.1.15,2013-09-09 00:55:00,
2013-09-08 21:00:00,71.9,70.1,29.91,SSE,159,0.0,0.0,94,0.00,,,0.00,Wunderground v.1.15,2013-09-09 01:00:00,
2013-09-08 21:05:00,71.8,70.3,29.91,SSE,159,0.0,0.0,95,0.00,,,0.00,Wunderground v.1.15,2013-09-09 01:05:00,
2013-09-08 21:15:00,71.4,69.6,29.92,SSE,159,0.0,0.0,94,0.00,,,0.00,Wunderground v.1.15,2013-09-09 01:15:00,
2013-09-08 21:20:00,71.2,69.7,29.92,SSE,159,0.0,0.0,95,0.00,,,0.00,Wunderground v.1.15,2013-09-09 01:20:00,
2013-09-08 21:25:00,71.1,69.6,29.92,SSE,159,0.0,0.0,95,0.00,,,0.00,Wunderground v.1.15,2013-09-09 01:25:00,
2013-09-08 21:35:00,70.9,69.7,29.92,SSE,159,0.0,0.0,96,0.00,,,0.00,Wunderground v.1.15,2013-09-09 01:35:00,
2013-09-08 21:40:00,70.7,69.5,29.92,SSE,159,0.0,0.0,96,0.00,,,0.00,Wunderground v.1.15,2013-09-09 01:40:00,
2013-09-08 21:45:00,70.6,69.4,29.93,SSE,159,0.0,0.0,96,0.00,,,0.00,Wunderground v.1.15,2013-09-09 01:45:00,
2013-09-08 21:55:00,70.3,69.1,29.93,SSE,159,0.0,0.0,96,0.00,,,0.00,Wunderground v.1.15,2013-09-09 01:55:00,
2013-09-08 22:00:00,70.2,69.0,29.93,SSE,159,0.0,0.0,96,0.00,,,0.00,Wunderground v.1.15,2013-09-09 02:00:00,
2013-09-08 22:05:00,70.0,68.8,29.93,SSE,159,0.0,0.0,96,0.00,,,0.00,Wunderground v.1.15,2013-09-09 02:05:00,
2013-09-08 22:15:00,69.8,68.9,29.94,SSE,159,0.0,0.0,97,0.00,,,0.00,Wunderground v.1.15,2013-09-09 02:15:00,
2013-09-08 22:20:00,69.8,68.9,29.94,SSE,159,0.0,0.0,97,0.00,,,0.00,Wunderground v.1.15,2013-09-09 02:20:00,
2013-09-08 22:25:00,69.7,68.8,29.94,SSE,159,0.0,0.0,97,0.00,,,0.00,Wunderground v.1.15,2013-09-09 02:25:00,
2013-09-08 22:35:00,69.6,68.7,29.94,SSE,159,0.0,0.0,97,0.00,,,0.00,Wunderground v.1.15,2013-09-09 02:35:00,
2013-09-08 22:40:00,69.6,69.0,29.94,SSE,159,0.0,0.0,98,0.00,,,0.00,Wunderground v.1.15,2013-09-09 02:40:00,
2013-09-08 22:45:00,69.4,68.5,29.94,SSE,159,0.0,0.0,97,0.00,,,0.00,Wunderground v.1.15,2013-09-09 02:45:00,
2013-09-08 22:55:00,69.1,68.2,29.94,SSE,159,0.0,0.0,97,0.00,,,0.00,Wunderground v.1.15,2013-09-09 02:55:00,
2013-09-08 23:00:00,68.9,68.0,29.94,SSE,159,0.0,0.0,97,0.00,,,0.00,Wunderground v.1.15,2013-09-09 03:00:00,
2013-09-08 23:05:00,68.9,68.0,29.94,SSE,159,0.0,0.0,97,0.00,,,0.00,Wunderground v.1.15,2013-09-09 03:05:00,
2013-09-08 23:15:00,68.6,67.7,29.95,SSE,159,0.0,0.0,97,0.00,,,0.00,Wunderground v.1.15,2013-09-09 03:15:00,
2013-09-08 23:20:00,68.5,67.6,29.95,SSE,159,0.0,0.0,97,0.00,,,0.00,Wunderground v.1.15,2013-09-09 03:20:00,
2013-09-08 23:25:00,68.4,67.5,29.95,SSE,159,0.0,0.0,97,0.00,,,0.00,Wunderground v.1.15,2013-09-09 03:25:00,
2013-09-08 23:35:00,68.2,67.3,29.95,SSE,159,0.0,0.0,97,0.00,,,0.00,Wunderground v.1.15,2013-09-09 03:35:00,
2013-09-08 23:40:00,68.1,67.2,29.95,SSE,159,0.0,0.0,97,0.00,,,0.00,Wunderground v.1.15,2013-09-09 03:40:00,
2013-09-08 23:50:00,67.9,67.3,29.95,SSE,159,0.0,0.0,98,0.00,,,0.00,Wunderground v.1.15,2013-09-09 03:50:00,
2013-09-08 23:55:00,67.8,67.2,29.95,SSE,159,0.0,0.0,98,0.00,,,0.00,Wunderground v.1.15,2013-09-09 03:55:00,